sensor_id;sensor_type;location;lat;lon;timestamp;P1;durP1;ratioP1;P2;durP2;ratioP2
41343;SDS011;27089;50.022;7.604;2023-12-04T00:01:12;14.40;;;9.23;;
41343;SDS011;27089;50.022;7.604;2023-12-04T00:03:39;16.63;;;9.73;;
41343;SDS011;27089;50.022;7.604;2023-12-04T00:06:07;16.83;;;9.73;;
41343;SDS011;27089;50.022;7.604;2023-12-04T00:08:35;16.87;;;10.50;;
41343;SDS011;27089;50.022;7.604;2023-12-04T00:11:04;19.07;;;10.93;;
41343;SDS011;27089;50.022;7.604;2023-12-04T00:13:32;18.13;;;11.13;;
41343;SDS011;27089;50.022;7.604;2023-12-04T00:15:59;20.67;;;11.07;;
41343;SDS011;27089;50.022;7.604;2023-12-04T00:18:26;20.23;;;11.43;;
41343;SDS011;27089;50.022;7.604;2023-12-04T00:20:53;19.13;;;11.33;;
41343;SDS011;27089;50.022;7.604;2023-12-04T00:23:20;23.07;;;12.30;;
41343;SDS011;27089;50.022;7.604;2023-12-04T00:25:47;22.07;;;11.93;;
41343;SDS011;27089;50.022;7.604;2023-12-04T00:28:16;22.27;;;12.77;;
41343;SDS011;27089;50.022;7.604;2023-12-04T00:30:44;22.80;;;13.23;;
41343;SDS011;27089;50.022;7.604;2023-12-04T00:33:11;23.23;;;13.23;;
41343;SDS011;27089;50.022;7.604;2023-12-04T00:35:38;25.03;;;14.07;;
41343;SDS011;27089;50.022;7.604;2023-12-04T00:38:05;22.63;;;13.83;;
41343;SDS011;27089;50.022;7.604;2023-12-04T00:40:32;26.63;;;14.77;;
41343;SDS011;27089;50.022;7.604;2023-12-04T00:42:59;24.13;;;14.23;;
41343;SDS011;27089;50.022;7.604;2023-12-04T00:45:27;24.13;;;14.13;;
41343;SDS011;27089;50.022;7.604;2023-12-04T00:47:54;28.10;;;15.13;;
41343;SDS011;27089;50.022;7.604;2023-12-04T00:50:21;28.87;;;16.23;;
41343;SDS011;27089;50.022;7.604;2023-12-04T00:52:48;27.23;;;15.63;;
41343;SDS011;27089;50.022;7.604;2023-12-04T00:55:15;26.60;;;14.87;;
41343;SDS011;27089;50.022;7.604;2023-12-04T00:57:42;29.30;;;15.87;;
41343;SDS011;27089;50.022;7.604;2023-12-04T01:00:09;25.67;;;14.63;;
41343;SDS011;27089;50.022;7.604;2023-12-04T01:02:38;29.97;;;16.03;;
41343;SDS011;27089;50.022;7.604;2023-12-04T01:05:06;25.50;;;14.87;;
41343;SDS011;27089;50.022;7.604;2023-12-04T01:07:33;25.37;;;15.10;;
41343;SDS011;27089;50.022;7.604;2023-12-04T01:10:00;26.83;;;16.30;;
41343;SDS011;27089;50.022;7.604;2023-12-04T01:12:27;24.83;;;15.33;;
41343;SDS011;27089;50.022;7.604;2023-12-04T01:14:54;25.27;;;14.93;;
41343;SDS011;27089;50.022;7.604;2023-12-04T01:17:21;28.60;;;15.40;;
41343;SDS011;27089;50.022;7.604;2023-12-04T01:19:49;26.23;;;15.43;;
41343;SDS011;27089;50.022;7.604;2023-12-04T01:22:16;27.73;;;15.63;;
41343;SDS011;27089;50.022;7.604;2023-12-04T01:24:44;31.10;;;16.27;;
41343;SDS011;27089;50.022;7.604;2023-12-04T01:27:11;29.33;;;15.17;;
41343;SDS011;27089;50.022;7.604;2023-12-04T01:29:38;30.37;;;16.37;;
41343;SDS011;27089;50.022;7.604;2023-12-04T01:32:05;30.07;;;15.90;;
41343;SDS011;27089;50.022;7.604;2023-12-04T01:34:33;25.13;;;14.40;;
41343;SDS011;27089;50.022;7.604;2023-12-04T01:37:01;25.90;;;15.53;;
41343;SDS011;27089;50.022;7.604;2023-12-04T01:39:28;27.70;;;14.87;;
41343;SDS011;27089;50.022;7.604;2023-12-04T01:41:55;28.97;;;15.57;;
41343;SDS011;27089;50.022;7.604;2023-12-04T01:44:22;27.57;;;15.70;;
41343;SDS011;27089;50.022;7.604;2023-12-04T01:46:50;26.07;;;15.27;;
41343;SDS011;27089;50.022;7.604;2023-12-04T01:49:17;25.83;;;13.87;;
41343;SDS011;27089;50.022;7.604;2023-12-04T01:51:45;26.20;;;14.90;;
41343;SDS011;27089;50.022;7.604;2023-12-04T01:54:14;24.53;;;14.87;;
41343;SDS011;27089;50.022;7.604;2023-12-04T01:56:43;28.87;;;15.07;;
41343;SDS011;27089;50.022;7.604;2023-12-04T01:59:11;22.77;;;14.03;;
41343;SDS011;27089;50.022;7.604;2023-12-04T02:01:39;24.67;;;13.97;;
41343;SDS011;27089;50.022;7.604;2023-12-04T02:04:07;27.23;;;14.73;;
41343;SDS011;27089;50.022;7.604;2023-12-04T02:06:34;21.60;;;13.27;;
41343;SDS011;27089;50.022;7.604;2023-12-04T02:09:01;24.23;;;14.17;;
41343;SDS011;27089;50.022;7.604;2023-12-04T02:11:33;22.83;;;12.43;;
41343;SDS011;27089;50.022;7.604;2023-12-04T02:14:01;23.57;;;13.67;;
41343;SDS011;27089;50.022;7.604;2023-12-04T02:16:28;23.93;;;13.77;;
41343;SDS011;27089;50.022;7.604;2023-12-04T02:18:58;22.47;;;13.53;;
41343;SDS011;27089;50.022;7.604;2023-12-04T02:21:26;26.67;;;15.30;;
41343;SDS011;27089;50.022;7.604;2023-12-04T02:23:55;27.77;;;15.13;;
41343;SDS011;27089;50.022;7.604;2023-12-04T02:26:23;31.60;;;16.90;;
41343;SDS011;27089;50.022;7.604;2023-12-04T02:29:00;28.37;;;15.47;;
41343;SDS011;27089;50.022;7.604;2023-12-04T02:31:33;29.57;;;16.20;;
41343;SDS011;27089;50.022;7.604;2023-12-04T02:34:02;28.87;;;16.20;;
41343;SDS011;27089;50.022;7.604;2023-12-04T02:36:33;30.57;;;16.37;;
41343;SDS011;27089;50.022;7.604;2023-12-04T02:39:04;30.70;;;15.70;;
41343;SDS011;27089;50.022;7.604;2023-12-04T02:41:32;30.07;;;17.27;;
41343;SDS011;27089;50.022;7.604;2023-12-04T02:43:59;31.37;;;17.97;;
41343;SDS011;27089;50.022;7.604;2023-12-04T02:46:27;31.93;;;17.57;;
41343;SDS011;27089;50.022;7.604;2023-12-04T02:48:57;29.43;;;16.60;;
41343;SDS011;27089;50.022;7.604;2023-12-04T02:51:25;29.50;;;15.83;;
41343;SDS011;27089;50.022;7.604;2023-12-04T02:53:52;26.30;;;14.87;;
41343;SDS011;27089;50.022;7.604;2023-12-04T02:56:21;30.73;;;17.23;;
41343;SDS011;27089;50.022;7.604;2023-12-04T02:58:49;26.77;;;15.40;;
41343;SDS011;27089;50.022;7.604;2023-12-04T03:01:18;29.53;;;16.50;;
41343;SDS011;27089;50.022;7.604;2023-12-04T03:03:46;29.97;;;15.83;;
41343;SDS011;27089;50.022;7.604;2023-12-04T03:06:13;33.77;;;17.77;;
41343;SDS011;27089;50.022;7.604;2023-12-04T03:08:41;33.07;;;16.90;;
41343;SDS011;27089;50.022;7.604;2023-12-04T03:11:09;29.00;;;16.60;;
41343;SDS011;27089;50.022;7.604;2023-12-04T03:13:38;33.07;;;18.50;;
41343;SDS011;27089;50.022;7.604;2023-12-04T03:16:06;30.60;;;16.67;;
41343;SDS011;27089;50.022;7.604;2023-12-04T03:18:41;32.40;;;17.23;;
41343;SDS011;27089;50.022;7.604;2023-12-04T03:21:09;28.33;;;16.50;;
41343;SDS011;27089;50.022;7.604;2023-12-04T03:23:37;32.07;;;17.40;;
41343;SDS011;27089;50.022;7.604;2023-12-04T03:26:04;31.70;;;17.43;;
41343;SDS011;27089;50.022;7.604;2023-12-04T03:28:32;32.03;;;17.77;;
41343;SDS011;27089;50.022;7.604;2023-12-04T03:31:01;30.77;;;17.03;;
41343;SDS011;27089;50.022;7.604;2023-12-04T03:33:29;31.43;;;17.40;;
41343;SDS011;27089;50.022;7.604;2023-12-04T03:35:59;33.60;;;17.90;;
41343;SDS011;27089;50.022;7.604;2023-12-04T03:38:26;33.03;;;17.87;;
41343;SDS011;27089;50.022;7.604;2023-12-04T03:40:54;31.20;;;17.17;;
41343;SDS011;27089;50.022;7.604;2023-12-04T03:43:21;31.23;;;17.57;;
41343;SDS011;27089;50.022;7.604;2023-12-04T03:45:49;32.83;;;16.83;;
41343;SDS011;27089;50.022;7.604;2023-12-04T03:48:18;33.00;;;18.40;;
41343;SDS011;27089;50.022;7.604;2023-12-04T03:50:46;30.40;;;17.07;;
41343;SDS011;27089;50.022;7.604;2023-12-04T03:53:13;30.20;;;16.00;;
41343;SDS011;27089;50.022;7.604;2023-12-04T03:55:41;28.50;;;16.13;;
41343;SDS011;27089;50.022;7.604;2023-12-04T03:58:09;29.97;;;16.23;;
41343;SDS011;27089;50.022;7.604;2023-12-04T04:00:36;27.57;;;16.20;;
41343;SDS011;27089;50.022;7.604;2023-12-04T04:03:06;27.33;;;15.43;;
41343;SDS011;27089;50.022;7.604;2023-12-04T04:05:35;31.40;;;16.27;;
41343;SDS011;27089;50.022;7.604;2023-12-04T04:08:03;30.10;;;17.17;;
41343;SDS011;27089;50.022;7.604;2023-12-04T04:10:33;27.17;;;15.50;;
41343;SDS011;27089;50.022;7.604;2023-12-04T04:13:01;27.03;;;15.90;;
41343;SDS011;27089;50.022;7.604;2023-12-04T04:15:28;25.27;;;14.93;;
41343;SDS011;27089;50.022;7.604;2023-12-04T04:17:56;30.60;;;16.47;;
41343;SDS011;27089;50.022;7.604;2023-12-04T04:20:23;26.77;;;15.30;;
41343;SDS011;27089;50.022;7.604;2023-12-04T04:22:52;27.40;;;15.63;;
41343;SDS011;27089;50.022;7.604;2023-12-04T04:25:20;25.47;;;14.00;;
41343;SDS011;27089;50.022;7.604;2023-12-04T04:27:49;28.97;;;16.47;;
41343;SDS011;27089;50.022;7.604;2023-12-04T04:30:17;37.80;;;23.20;;
41343;SDS011;27089;50.022;7.604;2023-12-04T04:32:47;26.57;;;15.43;;
41343;SDS011;27089;50.022;7.604;2023-12-04T04:35:15;30.57;;;16.27;;
41343;SDS011;27089;50.022;7.604;2023-12-04T04:37:42;30.93;;;16.20;;
41343;SDS011;27089;50.022;7.604;2023-12-04T04:40:12;27.57;;;15.80;;
41343;SDS011;27089;50.022;7.604;2023-12-04T04:42:41;29.83;;;16.83;;
41343;SDS011;27089;50.022;7.604;2023-12-04T04:45:10;27.87;;;16.10;;
41343;SDS011;27089;50.022;7.604;2023-12-04T04:47:37;28.17;;;16.17;;
41343;SDS011;27089;50.022;7.604;2023-12-04T04:50:05;27.47;;;15.53;;
41343;SDS011;27089;50.022;7.604;2023-12-04T04:52:34;33.97;;;21.90;;
41343;SDS011;27089;50.022;7.604;2023-12-04T04:55:02;27.70;;;14.70;;
41343;SDS011;27089;50.022;7.604;2023-12-04T04:57:33;24.97;;;14.27;;
41343;SDS011;27089;50.022;7.604;2023-12-04T05:00:01;26.17;;;13.73;;
41343;SDS011;27089;50.022;7.604;2023-12-04T05:02:29;26.23;;;14.73;;
41343;SDS011;27089;50.022;7.604;2023-12-04T05:04:56;24.53;;;13.60;;
41343;SDS011;27089;50.022;7.604;2023-12-04T05:07:24;23.77;;;13.37;;
41343;SDS011;27089;50.022;7.604;2023-12-04T05:09:51;25.10;;;14.07;;
41343;SDS011;27089;50.022;7.604;2023-12-04T05:12:19;24.37;;;13.43;;
41343;SDS011;27089;50.022;7.604;2023-12-04T05:14:48;24.67;;;14.07;;
41343;SDS011;27089;50.022;7.604;2023-12-04T05:17:15;27.30;;;16.90;;
41343;SDS011;27089;50.022;7.604;2023-12-04T05:19:43;33.67;;;23.87;;
41343;SDS011;27089;50.022;7.604;2023-12-04T05:22:10;19.70;;;13.23;;
41343;SDS011;27089;50.022;7.604;2023-12-04T05:24:38;22.23;;;12.77;;
41343;SDS011;27089;50.022;7.604;2023-12-04T05:27:08;20.77;;;12.53;;
41343;SDS011;27089;50.022;7.604;2023-12-04T05:29:35;22.90;;;12.87;;
41343;SDS011;27089;50.022;7.604;2023-12-04T05:32:05;20.80;;;12.33;;
41343;SDS011;27089;50.022;7.604;2023-12-04T05:34:32;23.40;;;13.70;;
41343;SDS011;27089;50.022;7.604;2023-12-04T05:37:00;21.37;;;12.53;;
41343;SDS011;27089;50.022;7.604;2023-12-04T05:39:27;16.53;;;10.33;;
41343;SDS011;27089;50.022;7.604;2023-12-04T05:41:55;16.73;;;10.53;;
41343;SDS011;27089;50.022;7.604;2023-12-04T05:44:25;16.67;;;9.60;;
41343;SDS011;27089;50.022;7.604;2023-12-04T05:46:53;23.67;;;15.97;;
41343;SDS011;27089;50.022;7.604;2023-12-04T05:49:22;16.03;;;10.23;;
41343;SDS011;27089;50.022;7.604;2023-12-04T05:51:49;16.43;;;10.00;;
41343;SDS011;27089;50.022;7.604;2023-12-04T05:54:17;17.17;;;10.40;;
41343;SDS011;27089;50.022;7.604;2023-12-04T05:56:44;20.17;;;11.13;;
41343;SDS011;27089;50.022;7.604;2023-12-04T05:59:12;20.43;;;11.67;;
41343;SDS011;27089;50.022;7.604;2023-12-04T06:01:40;19.27;;;11.70;;
41343;SDS011;27089;50.022;7.604;2023-12-04T06:04:07;19.87;;;11.57;;
41343;SDS011;27089;50.022;7.604;2023-12-04T06:06:36;17.20;;;9.77;;
41343;SDS011;27089;50.022;7.604;2023-12-04T06:09:04;15.30;;;8.63;;
41343;SDS011;27089;50.022;7.604;2023-12-04T06:11:31;15.27;;;9.23;;
41343;SDS011;27089;50.022;7.604;2023-12-04T06:13:59;16.10;;;8.73;;
41343;SDS011;27089;50.022;7.604;2023-12-04T06:16:27;14.60;;;9.47;;
41343;SDS011;27089;50.022;7.604;2023-12-04T06:18:55;14.57;;;8.43;;
41343;SDS011;27089;50.022;7.604;2023-12-04T06:21:22;14.90;;;8.93;;
41343;SDS011;27089;50.022;7.604;2023-12-04T06:23:54;15.27;;;8.17;;
41343;SDS011;27089;50.022;7.604;2023-12-04T06:26:26;15.30;;;9.73;;
41343;SDS011;27089;50.022;7.604;2023-12-04T06:28:54;14.63;;;9.30;;
41343;SDS011;27089;50.022;7.604;2023-12-04T06:31:24;14.10;;;9.20;;
41343;SDS011;27089;50.022;7.604;2023-12-04T06:33:52;19.87;;;10.30;;
41343;SDS011;27089;50.022;7.604;2023-12-04T06:36:22;20.70;;;10.83;;
41343;SDS011;27089;50.022;7.604;2023-12-04T06:38:53;18.87;;;11.47;;
41343;SDS011;27089;50.022;7.604;2023-12-04T06:41:22;21.87;;;12.03;;
41343;SDS011;27089;50.022;7.604;2023-12-04T06:43:50;22.90;;;13.03;;
41343;SDS011;27089;50.022;7.604;2023-12-04T06:46:20;25.70;;;14.03;;
41343;SDS011;27089;50.022;7.604;2023-12-04T06:48:50;26.43;;;14.67;;
41343;SDS011;27089;50.022;7.604;2023-12-04T06:51:21;26.20;;;14.73;;
41343;SDS011;27089;50.022;7.604;2023-12-04T06:53:48;21.77;;;12.83;;
41343;SDS011;27089;50.022;7.604;2023-12-04T06:56:17;29.53;;;16.27;;
41343;SDS011;27089;50.022;7.604;2023-12-04T06:58:45;29.10;;;14.87;;
41343;SDS011;27089;50.022;7.604;2023-12-04T07:01:13;29.40;;;16.63;;
41343;SDS011;27089;50.022;7.604;2023-12-04T07:03:40;22.47;;;13.40;;
41343;SDS011;27089;50.022;7.604;2023-12-04T07:06:08;27.17;;;15.03;;
41343;SDS011;27089;50.022;7.604;2023-12-04T07:08:36;32.27;;;16.67;;
41343;SDS011;27089;50.022;7.604;2023-12-04T07:11:06;25.77;;;13.57;;
41343;SDS011;27089;50.022;7.604;2023-12-04T07:13:36;29.50;;;17.10;;
41343;SDS011;27089;50.022;7.604;2023-12-04T07:16:04;24.53;;;13.77;;
41343;SDS011;27089;50.022;7.604;2023-12-04T07:18:32;22.20;;;12.47;;
41343;SDS011;27089;50.022;7.604;2023-12-04T07:21:02;29.63;;;16.90;;
41343;SDS011;27089;50.022;7.604;2023-12-04T07:23:30;24.57;;;14.90;;
41343;SDS011;27089;50.022;7.604;2023-12-04T07:26:00;25.50;;;14.37;;
41343;SDS011;27089;50.022;7.604;2023-12-04T07:28:27;21.33;;;12.00;;
41343;SDS011;27089;50.022;7.604;2023-12-04T07:30:56;23.50;;;14.67;;
41343;SDS011;27089;50.022;7.604;2023-12-04T07:33:24;20.10;;;12.83;;
41343;SDS011;27089;50.022;7.604;2023-12-04T07:35:52;20.20;;;12.97;;
41343;SDS011;27089;50.022;7.604;2023-12-04T07:38:19;24.57;;;13.90;;
41343;SDS011;27089;50.022;7.604;2023-12-04T07:40:47;20.50;;;12.20;;
41343;SDS011;27089;50.022;7.604;2023-12-04T07:43:14;22.20;;;13.17;;
41343;SDS011;27089;50.022;7.604;2023-12-04T07:45:43;20.43;;;12.53;;
41343;SDS011;27089;50.022;7.604;2023-12-04T07:48:12;21.57;;;12.27;;
41343;SDS011;27089;50.022;7.604;2023-12-04T07:50:42;20.97;;;12.57;;
41343;SDS011;27089;50.022;7.604;2023-12-04T07:53:09;22.50;;;12.63;;
41343;SDS011;27089;50.022;7.604;2023-12-04T07:55:38;20.00;;;11.77;;
41343;SDS011;27089;50.022;7.604;2023-12-04T07:58:06;21.30;;;11.80;;
41343;SDS011;27089;50.022;7.604;2023-12-04T08:00:33;23.53;;;12.37;;
41343;SDS011;27089;50.022;7.604;2023-12-04T08:03:01;21.77;;;11.87;;
41343;SDS011;27089;50.022;7.604;2023-12-04T08:05:30;21.40;;;12.43;;
41343;SDS011;27089;50.022;7.604;2023-12-04T08:07:58;21.37;;;11.57;;
41343;SDS011;27089;50.022;7.604;2023-12-04T08:10:29;22.13;;;12.63;;
41343;SDS011;27089;50.022;7.604;2023-12-04T08:12:57;20.50;;;12.43;;
41343;SDS011;27089;50.022;7.604;2023-12-04T08:15:25;20.90;;;12.07;;
41343;SDS011;27089;50.022;7.604;2023-12-04T08:17:53;18.90;;;11.07;;
41343;SDS011;27089;50.022;7.604;2023-12-04T08:20:21;21.63;;;12.43;;
41343;SDS011;27089;50.022;7.604;2023-12-04T08:22:52;20.57;;;12.20;;
41343;SDS011;27089;50.022;7.604;2023-12-04T08:25:20;21.37;;;12.30;;
41343;SDS011;27089;50.022;7.604;2023-12-04T08:27:52;19.23;;;10.90;;
41343;SDS011;27089;50.022;7.604;2023-12-04T08:30:20;22.13;;;12.03;;
41343;SDS011;27089;50.022;7.604;2023-12-04T08:32:47;22.03;;;11.17;;
41343;SDS011;27089;50.022;7.604;2023-12-04T08:35:15;25.37;;;14.07;;
41343;SDS011;27089;50.022;7.604;2023-12-04T08:37:42;20.03;;;11.97;;
41343;SDS011;27089;50.022;7.604;2023-12-04T08:40:13;19.40;;;11.00;;
41343;SDS011;27089;50.022;7.604;2023-12-04T08:42:42;19.00;;;11.83;;
41343;SDS011;27089;50.022;7.604;2023-12-04T08:45:10;18.90;;;11.53;;
41343;SDS011;27089;50.022;7.604;2023-12-04T08:47:38;20.47;;;11.60;;
41343;SDS011;27089;50.022;7.604;2023-12-04T08:50:06;21.27;;;11.53;;
41343;SDS011;27089;50.022;7.604;2023-12-04T08:52:34;21.83;;;12.23;;
41343;SDS011;27089;50.022;7.604;2023-12-04T08:55:05;17.60;;;10.57;;
41343;SDS011;27089;50.022;7.604;2023-12-04T08:57:35;19.67;;;11.63;;
41343;SDS011;27089;50.022;7.604;2023-12-04T09:00:03;17.70;;;10.70;;
41343;SDS011;27089;50.022;7.604;2023-12-04T09:02:34;20.03;;;11.67;;
41343;SDS011;27089;50.022;7.604;2023-12-04T09:05:05;18.97;;;11.23;;
41343;SDS011;27089;50.022;7.604;2023-12-04T09:07:33;18.00;;;10.67;;
41343;SDS011;27089;50.022;7.604;2023-12-04T09:10:03;22.07;;;11.90;;
41343;SDS011;27089;50.022;7.604;2023-12-04T09:12:31;19.97;;;11.00;;
41343;SDS011;27089;50.022;7.604;2023-12-04T09:15:02;16.80;;;10.20;;
41343;SDS011;27089;50.022;7.604;2023-12-04T09:17:33;19.17;;;10.53;;
41343;SDS011;27089;50.022;7.604;2023-12-04T09:20:02;18.93;;;10.57;;
41343;SDS011;27089;50.022;7.604;2023-12-04T09:22:32;16.80;;;10.83;;
41343;SDS011;27089;50.022;7.604;2023-12-04T09:25:04;18.17;;;10.80;;
41343;SDS011;27089;50.022;7.604;2023-12-04T09:27:33;20.50;;;11.20;;
41343;SDS011;27089;50.022;7.604;2023-12-04T09:30:03;15.30;;;9.90;;
41343;SDS011;27089;50.022;7.604;2023-12-04T09:32:31;18.20;;;12.17;;
41343;SDS011;27089;50.022;7.604;2023-12-04T09:34:59;14.97;;;9.13;;
41343;SDS011;27089;50.022;7.604;2023-12-04T09:37:29;16.73;;;12.40;;
41343;SDS011;27089;50.022;7.604;2023-12-04T09:39:57;16.47;;;9.60;;
41343;SDS011;27089;50.022;7.604;2023-12-04T09:42:26;14.90;;;9.20;;
41343;SDS011;27089;50.022;7.604;2023-12-04T09:44:54;18.03;;;12.13;;
41343;SDS011;27089;50.022;7.604;2023-12-04T09:47:23;13.70;;;10.20;;
41343;SDS011;27089;50.022;7.604;2023-12-04T09:49:53;22.80;;;17.70;;
41343;SDS011;27089;50.022;7.604;2023-12-04T09:52:21;43.43;;;38.70;;
41343;SDS011;27089;50.022;7.604;2023-12-04T09:54:50;28.57;;;25.40;;
41343;SDS011;27089;50.022;7.604;2023-12-04T09:57:18;16.20;;;9.97;;
41343;SDS011;27089;50.022;7.604;2023-12-04T09:59:45;18.03;;;11.37;;
41343;SDS011;27089;50.022;7.604;2023-12-04T10:02:15;21.30;;;11.90;;
41343;SDS011;27089;50.022;7.604;2023-12-04T10:04:46;25.10;;;14.97;;
41343;SDS011;27089;50.022;7.604;2023-12-04T10:07:14;14.03;;;9.23;;
41343;SDS011;27089;50.022;7.604;2023-12-04T10:09:42;15.37;;;9.80;;
41343;SDS011;27089;50.022;7.604;2023-12-04T10:12:09;14.67;;;9.10;;
41343;SDS011;27089;50.022;7.604;2023-12-04T10:14:37;13.40;;;8.83;;
41343;SDS011;27089;50.022;7.604;2023-12-04T10:17:15;18.47;;;10.80;;
41343;SDS011;27089;50.022;7.604;2023-12-04T10:19:47;17.03;;;10.47;;
41343;SDS011;27089;50.022;7.604;2023-12-04T10:22:36;14.33;;;8.60;;
41343;SDS011;27089;50.022;7.604;2023-12-04T10:27:52;12.43;;;7.43;;
41343;SDS011;27089;50.022;7.604;2023-12-04T10:30:24;12.50;;;7.50;;
41343;SDS011;27089;50.022;7.604;2023-12-04T10:32:56;13.37;;;7.70;;
41343;SDS011;27089;50.022;7.604;2023-12-04T10:35:27;12.23;;;7.10;;
41343;SDS011;27089;50.022;7.604;2023-12-04T10:37:56;13.23;;;7.33;;
41343;SDS011;27089;50.022;7.604;2023-12-04T10:40:25;13.73;;;8.70;;
41343;SDS011;27089;50.022;7.604;2023-12-04T10:43:09;13.00;;;9.17;;
41343;SDS011;27089;50.022;7.604;2023-12-04T10:45:38;13.73;;;8.33;;
41343;SDS011;27089;50.022;7.604;2023-12-04T10:48:07;15.83;;;12.07;;
41343;SDS011;27089;50.022;7.604;2023-12-04T10:50:37;19.17;;;13.77;;
41343;SDS011;27089;50.022;7.604;2023-12-04T10:53:06;15.10;;;10.60;;
41343;SDS011;27089;50.022;7.604;2023-12-04T10:55:35;15.90;;;9.27;;
41343;SDS011;27089;50.022;7.604;2023-12-04T10:58:05;13.00;;;7.97;;
41343;SDS011;27089;50.022;7.604;2023-12-04T11:00:35;15.30;;;8.00;;
41343;SDS011;27089;50.022;7.604;2023-12-04T11:03:05;14.50;;;9.07;;
41343;SDS011;27089;50.022;7.604;2023-12-04T11:05:35;16.50;;;9.80;;
41343;SDS011;27089;50.022;7.604;2023-12-04T11:08:07;14.67;;;8.50;;
41343;SDS011;27089;50.022;7.604;2023-12-04T11:10:40;17.00;;;9.27;;
41343;SDS011;27089;50.022;7.604;2023-12-04T11:13:17;18.83;;;10.17;;
41343;SDS011;27089;50.022;7.604;2023-12-04T11:15:56;17.87;;;10.43;;
41343;SDS011;27089;50.022;7.604;2023-12-04T11:18:31;16.97;;;10.67;;
41343;SDS011;27089;50.022;7.604;2023-12-04T11:21:07;17.10;;;10.20;;
41343;SDS011;27089;50.022;7.604;2023-12-04T11:23:35;16.47;;;9.87;;
41343;SDS011;27089;50.022;7.604;2023-12-04T11:26:03;18.77;;;11.33;;
41343;SDS011;27089;50.022;7.604;2023-12-04T11:28:32;15.87;;;9.67;;
41343;SDS011;27089;50.022;7.604;2023-12-04T11:31:01;17.57;;;10.50;;
41343;SDS011;27089;50.022;7.604;2023-12-04T11:33:33;20.63;;;10.63;;
41343;SDS011;27089;50.022;7.604;2023-12-04T11:36:08;14.57;;;9.43;;
41343;SDS011;27089;50.022;7.604;2023-12-04T11:38:36;17.60;;;10.80;;
41343;SDS011;27089;50.022;7.604;2023-12-04T11:41:13;16.00;;;9.17;;
41343;SDS011;27089;50.022;7.604;2023-12-04T11:43:42;18.00;;;10.50;;
41343;SDS011;27089;50.022;7.604;2023-12-04T11:46:12;17.13;;;10.90;;
41343;SDS011;27089;50.022;7.604;2023-12-04T11:48:46;17.23;;;10.10;;
41343;SDS011;27089;50.022;7.604;2023-12-04T11:51:16;18.93;;;11.03;;
41343;SDS011;27089;50.022;7.604;2023-12-04T11:54:16;15.57;;;8.37;;
41343;SDS011;27089;50.022;7.604;2023-12-04T11:56:56;18.17;;;11.20;;
41343;SDS011;27089;50.022;7.604;2023-12-04T11:59:25;19.77;;;10.97;;
41343;SDS011;27089;50.022;7.604;2023-12-04T12:01:54;19.37;;;13.03;;
41343;SDS011;27089;50.022;7.604;2023-12-04T12:04:25;24.10;;;18.00;;
41343;SDS011;27089;50.022;7.604;2023-12-04T12:06:55;27.77;;;22.07;;
41343;SDS011;27089;50.022;7.604;2023-12-04T12:09:22;17.47;;;10.33;;
41343;SDS011;27089;50.022;7.604;2023-12-04T12:11:51;14.53;;;8.97;;
41343;SDS011;27089;50.022;7.604;2023-12-04T12:14:20;17.63;;;10.03;;
41343;SDS011;27089;50.022;7.604;2023-12-04T12:16:47;14.50;;;8.10;;
41343;SDS011;27089;50.022;7.604;2023-12-04T12:19:15;19.40;;;10.97;;
41343;SDS011;27089;50.022;7.604;2023-12-04T12:21:44;22.40;;;12.00;;
41343;SDS011;27089;50.022;7.604;2023-12-04T12:24:18;17.93;;;11.10;;
41343;SDS011;27089;50.022;7.604;2023-12-04T12:26:46;13.87;;;7.90;;
41343;SDS011;27089;50.022;7.604;2023-12-04T12:29:14;15.27;;;9.27;;
41343;SDS011;27089;50.022;7.604;2023-12-04T12:31:42;18.10;;;10.97;;
41343;SDS011;27089;50.022;7.604;2023-12-04T12:34:11;17.03;;;10.27;;
41343;SDS011;27089;50.022;7.604;2023-12-04T12:36:39;15.17;;;9.03;;
41343;SDS011;27089;50.022;7.604;2023-12-04T12:39:10;30.63;;;17.63;;
41343;SDS011;27089;50.022;7.604;2023-12-04T12:41:39;17.10;;;10.00;;
41343;SDS011;27089;50.022;7.604;2023-12-04T12:44:16;16.60;;;9.90;;
41343;SDS011;27089;50.022;7.604;2023-12-04T12:46:47;15.30;;;9.67;;
41343;SDS011;27089;50.022;7.604;2023-12-04T12:49:16;17.20;;;10.37;;
41343;SDS011;27089;50.022;7.604;2023-12-04T12:51:47;19.73;;;10.43;;
41343;SDS011;27089;50.022;7.604;2023-12-04T12:54:23;16.37;;;10.57;;
41343;SDS011;27089;50.022;7.604;2023-12-04T12:56:52;20.03;;;10.40;;
41343;SDS011;27089;50.022;7.604;2023-12-04T12:59:20;15.43;;;10.07;;
41343;SDS011;27089;50.022;7.604;2023-12-04T13:01:48;16.90;;;9.93;;
41343;SDS011;27089;50.022;7.604;2023-12-04T13:04:15;16.30;;;10.03;;
41343;SDS011;27089;50.022;7.604;2023-12-04T13:06:47;14.90;;;9.07;;
41343;SDS011;27089;50.022;7.604;2023-12-04T13:09:14;14.57;;;9.70;;
41343;SDS011;27089;50.022;7.604;2023-12-04T13:11:44;15.00;;;8.97;;
41343;SDS011;27089;50.022;7.604;2023-12-04T13:14:13;14.80;;;9.30;;
41343;SDS011;27089;50.022;7.604;2023-12-04T13:16:43;14.23;;;9.43;;
41343;SDS011;27089;50.022;7.604;2023-12-04T13:19:13;11.23;;;7.27;;
41343;SDS011;27089;50.022;7.604;2023-12-04T13:21:44;14.67;;;8.90;;
41343;SDS011;27089;50.022;7.604;2023-12-04T13:24:11;15.77;;;9.73;;
41343;SDS011;27089;50.022;7.604;2023-12-04T13:26:39;15.70;;;9.27;;
41343;SDS011;27089;50.022;7.604;2023-12-04T13:29:07;15.20;;;9.60;;
41343;SDS011;27089;50.022;7.604;2023-12-04T13:31:36;19.23;;;10.77;;
41343;SDS011;27089;50.022;7.604;2023-12-04T13:34:04;16.53;;;10.10;;
41343;SDS011;27089;50.022;7.604;2023-12-04T13:36:34;16.73;;;10.07;;
41343;SDS011;27089;50.022;7.604;2023-12-04T13:39:02;14.70;;;9.57;;
41343;SDS011;27089;50.022;7.604;2023-12-04T13:41:30;16.40;;;10.60;;
41343;SDS011;27089;50.022;7.604;2023-12-04T13:44:15;14.50;;;9.27;;
41343;SDS011;27089;50.022;7.604;2023-12-04T13:46:44;18.00;;;10.63;;
41343;SDS011;27089;50.022;7.604;2023-12-04T13:49:15;16.70;;;10.87;;
41343;SDS011;27089;50.022;7.604;2023-12-04T13:51:44;18.53;;;10.43;;
41343;SDS011;27089;50.022;7.604;2023-12-04T13:54:16;19.60;;;12.17;;
41343;SDS011;27089;50.022;7.604;2023-12-04T13:56:46;15.57;;;10.30;;
41343;SDS011;27089;50.022;7.604;2023-12-04T13:59:19;16.67;;;10.23;;
41343;SDS011;27089;50.022;7.604;2023-12-04T14:01:49;16.40;;;10.73;;
41343;SDS011;27089;50.022;7.604;2023-12-04T14:04:17;16.37;;;9.63;;
41343;SDS011;27089;50.022;7.604;2023-12-04T14:06:45;16.83;;;10.67;;
41343;SDS011;27089;50.022;7.604;2023-12-04T14:09:13;15.47;;;10.50;;
41343;SDS011;27089;50.022;7.604;2023-12-04T14:11:42;15.17;;;10.57;;
41343;SDS011;27089;50.022;7.604;2023-12-04T14:14:10;16.00;;;9.67;;
41343;SDS011;27089;50.022;7.604;2023-12-04T14:16:39;20.77;;;11.17;;
41343;SDS011;27089;50.022;7.604;2023-12-04T14:19:12;14.53;;;9.37;;
41343;SDS011;27089;50.022;7.604;2023-12-04T14:21:42;18.30;;;11.00;;
41343;SDS011;27089;50.022;7.604;2023-12-04T14:24:09;17.53;;;11.23;;
41343;SDS011;27089;50.022;7.604;2023-12-04T14:26:37;17.67;;;10.20;;
41343;SDS011;27089;50.022;7.604;2023-12-04T14:29:04;17.37;;;10.73;;
41343;SDS011;27089;50.022;7.604;2023-12-04T14:31:33;17.40;;;10.33;;
41343;SDS011;27089;50.022;7.604;2023-12-04T14:34:01;18.67;;;12.17;;
41343;SDS011;27089;50.022;7.604;2023-12-04T14:36:33;18.60;;;11.53;;